sensor_id;sensor_type;location;lat;lon;timestamp;temperature;humidity
23873;DHT22;42884;50.718;4.630;2022-08-20T00:02:09;20.10;99.90
23873;DHT22;42884;50.718;4.630;2022-08-20T00:04:35;20.00;99.90
23873;DHT22;42884;50.718;4.630;2022-08-20T00:07:01;20.00;99.90
23873;DHT22;42884;50.718;4.630;2022-08-20T00:09:26;20.00;99.90
23873;DHT22;42884;50.718;4.630;2022-08-20T00:11:52;20.10;99.90
23873;DHT22;42884;50.718;4.630;2022-08-20T00:14:17;19.90;99.90
23873;DHT22;42884;50.718;4.630;2022-08-20T00:16:43;20.00;99.90
23873;DHT22;42884;50.718;4.630;2022-08-20T00:19:09;20.00;99.90
23873;DHT22;42884;50.718;4.630;2022-08-20T00:21:34;20.00;99.90
23873;DHT22;42884;50.718;4.630;2022-08-20T00:24:01;19.90;99.90
23873;DHT22;42884;50.718;4.630;2022-08-20T00:26:26;19.70;99.90
23873;DHT22;42884;50.718;4.630;2022-08-20T00:28:52;19.60;99.90
23873;DHT22;42884;50.718;4.630;2022-08-20T00:31:19;19.60;99.90
23873;DHT22;42884;50.718;4.630;2022-08-20T00:33:45;19.50;99.90
23873;DHT22;42884;50.718;4.630;2022-08-20T00:36:11;19.50;99.90
23873;DHT22;42884;50.718;4.630;2022-08-20T00:38:38;19.50;99.90
23873;DHT22;42884;50.718;4.630;2022-08-20T00:41:05;19.50;99.90
23873;DHT22;42884;50.718;4.630;2022-08-20T00:43:42;19.50;99.90
23873;DHT22;42884;50.718;4.630;2022-08-20T00:46:09;19.50;99.90
23873;DHT22;42884;50.718;4.630;2022-08-20T00:48:36;19.50;99.90
23873;DHT22;42884;50.718;4.630;2022-08-20T00:51:06;19.50;99.90
23873;DHT22;42884;50.718;4.630;2022-08-20T00:53:32;19.40;99.90
23873;DHT22;42884;50.718;4.630;2022-08-20T00:55:58;19.30;99.90
23873;DHT22;42884;50.718;4.630;2022-08-20T00:58:25;19.30;99.90
23873;DHT22;42884;50.718;4.630;2022-08-20T01:00:52;19.20;99.90
23873;DHT22;42884;50.718;4.630;2022-08-20T01:03:18;19.30;99.90
23873;DHT22;42884;50.718;4.630;2022-08-20T01:05:45;19.30;99.90
23873;DHT22;42884;50.718;4.630;2022-08-20T01:08:12;19.20;99.90
23873;DHT22;42884;50.718;4.630;2022-08-20T01:10:39;19.10;99.90
23873;DHT22;42884;50.718;4.630;2022-08-20T01:13:11;19.20;99.90
23873;DHT22;42884;50.718;4.630;2022-08-20T01:15:38;19.20;99.90
23873;DHT22;42884;50.718;4.630;2022-08-20T01:18:05;19.20;99.90
23873;DHT22;42884;50.718;4.630;2022-08-20T01:20:33;19.20;99.90
23873;DHT22;42884;50.718;4.630;2022-08-20T01:25:52;19.20;99.90
23873;DHT22;42884;50.718;4.630;2022-08-20T01:28:20;19.20;99.90
23873;DHT22;42884;50.718;4.630;2022-08-20T01:30:46;19.00;99.90
23873;DHT22;42884;50.718;4.630;2022-08-20T01:33:12;19.00;99.90
23873;DHT22;42884;50.718;4.630;2022-08-20T01:35:38;18.90;99.90
23873;DHT22;42884;50.718;4.630;2022-08-20T01:38:04;18.80;99.90
23873;DHT22;42884;50.718;4.630;2022-08-20T01:43:13;18.70;99.90
23873;DHT22;42884;50.718;4.630;2022-08-20T01:45:38;18.70;99.90
23873;DHT22;42884;50.718;4.630;2022-08-20T01:48:04;18.60;99.90
23873;DHT22;42884;50.718;4.630;2022-08-20T01:50:30;18.60;99.90
23873;DHT22;42884;50.718;4.630;2022-08-20T01:53:07;18.50;99.90
23873;DHT22;42884;50.718;4.630;2022-08-20T01:55:36;18.40;99.90
23873;DHT22;42884;50.718;4.630;2022-08-20T01:58:02;18.40;99.90
23873;DHT22;42884;50.718;4.630;2022-08-20T02:00:29;18.30;99.90
23873;DHT22;42884;50.718;4.630;2022-08-20T02:02:54;18.20;99.90
23873;DHT22;42884;50.718;4.630;2022-08-20T02:05:20;18.20;99.90
23873;DHT22;42884;50.718;4.630;2022-08-20T02:07:46;18.20;99.90
23873;DHT22;42884;50.718;4.630;2022-08-20T02:10:12;18.20;99.90
23873;DHT22;42884;50.718;4.630;2022-08-20T02:12:38;18.20;99.90
23873;DHT22;42884;50.718;4.630;2022-08-20T02:15:05;18.20;99.90
23873;DHT22;42884;50.718;4.630;2022-08-20T02:17:32;18.10;99.90
23873;DHT22;42884;50.718;4.630;2022-08-20T02:20:03;18.20;99.90
23873;DHT22;42884;50.718;4.630;2022-08-20T02:22:35;18.10;99.90
23873;DHT22;42884;50.718;4.630;2022-08-20T02:25:03;18.10;99.90
23873;DHT22;42884;50.718;4.630;2022-08-20T02:27:29;18.10;99.90
23873;DHT22;42884;50.718;4.630;2022-08-20T02:29:54;18.00;99.90
23873;DHT22;42884;50.718;4.630;2022-08-20T02:32:20;17.80;99.90
23873;DHT22;42884;50.718;4.630;2022-08-20T02:34:46;17.80;99.90
23873;DHT22;42884;50.718;4.630;2022-08-20T02:37:11;17.80;99.90
23873;DHT22;42884;50.718;4.630;2022-08-20T02:39:43;17.80;99.90
23873;DHT22;42884;50.718;4.630;2022-08-20T02:42:09;17.80;99.90
23873;DHT22;42884;50.718;4.630;2022-08-20T02:44:36;17.70;99.90
23873;DHT22;42884;50.718;4.630;2022-08-20T02:47:03;17.70;99.90
23873;DHT22;42884;50.718;4.630;2022-08-20T02:49:28;17.60;99.90
23873;DHT22;42884;50.718;4.630;2022-08-20T02:51:54;17.60;99.90
23873;DHT22;42884;50.718;4.630;2022-08-20T02:54:19;17.60;99.90
23873;DHT22;42884;50.718;4.630;2022-08-20T02:56:45;17.50;99.90
23873;DHT22;42884;50.718;4.630;2022-08-20T02:59:11;17.50;99.90
23873;DHT22;42884;50.718;4.630;2022-08-20T03:01:37;17.50;99.90
23873;DHT22;42884;50.718;4.630;2022-08-20T03:04:03;17.50;99.90
23873;DHT22;42884;50.718;4.630;2022-08-20T03:06:29;17.40;99.90
23873;DHT22;42884;50.718;4.630;2022-08-20T03:08:54;17.40;99.90
23873;DHT22;42884;50.718;4.630;2022-08-20T03:11:20;17.40;99.90
23873;DHT22;42884;50.718;4.630;2022-08-20T03:13:46;17.40;99.90
23873;DHT22;42884;50.718;4.630;2022-08-20T03:16:12;17.40;99.90
23873;DHT22;42884;50.718;4.630;2022-08-20T03:18:39;17.30;99.90
23873;DHT22;42884;50.718;4.630;2022-08-20T03:21:06;17.20;99.90
23873;DHT22;42884;50.718;4.630;2022-08-20T03:23:32;17.30;99.90
23873;DHT22;42884;50.718;4.630;2022-08-20T03:25:58;17.30;99.90
23873;DHT22;42884;50.718;4.630;2022-08-20T03:28:24;17.20;99.90
23873;DHT22;42884;50.718;4.630;2022-08-20T03:30:50;17.20;99.90
23873;DHT22;42884;50.718;4.630;2022-08-20T03:33:16;17.20;99.90
23873;DHT22;42884;50.718;4.630;2022-08-20T03:35:42;17.30;99.90
23873;DHT22;42884;50.718;4.630;2022-08-20T03:38:08;17.20;99.90
23873;DHT22;42884;50.718;4.630;2022-08-20T03:40:34;17.10;99.90
23873;DHT22;42884;50.718;4.630;2022-08-20T03:43:00;17.10;99.90
23873;DHT22;42884;50.718;4.630;2022-08-20T03:45:26;17.10;99.90
23873;DHT22;42884;50.718;4.630;2022-08-20T03:47:54;17.10;99.90
23873;DHT22;42884;50.718;4.630;2022-08-20T03:50:22;17.10;99.90
23873;DHT22;42884;50.718;4.630;2022-08-20T03:52:48;17.10;99.90
23873;DHT22;42884;50.718;4.630;2022-08-20T03:55:14;17.10;99.90
23873;DHT22;42884;50.718;4.630;2022-08-20T03:57:44;17.00;99.90
23873;DHT22;42884;50.718;4.630;2022-08-20T04:00:10;17.00;99.90
23873;DHT22;42884;50.718;4.630;2022-08-20T04:02:37;17.00;99.90
23873;DHT22;42884;50.718;4.630;2022-08-20T04:05:03;17.00;99.90
23873;DHT22;42884;50.718;4.630;2022-08-20T04:07:29;17.00;99.90
23873;DHT22;42884;50.718;4.630;2022-08-20T04:09:54;17.00;99.90
23873;DHT22;42884;50.718;4.630;2022-08-20T04:12:21;17.00;99.90
23873;DHT22;42884;50.718;4.630;2022-08-20T04:14:47;17.00;99.90
23873;DHT22;42884;50.718;4.630;2022-08-20T04:17:12;17.00;99.90
23873;DHT22;42884;50.718;4.630;2022-08-20T04:19:38;17.00;99.90
23873;DHT22;42884;50.718;4.630;2022-08-20T04:22:05;17.00;99.90
23873;DHT22;42884;50.718;4.630;2022-08-20T04:24:31;17.00;99.90
23873;DHT22;42884;50.718;4.630;2022-08-20T04:26:57;17.00;99.90
23873;DHT22;42884;50.718;4.630;2022-08-20T04:29:23;17.10;99.90
23873;DHT22;42884;50.718;4.630;2022-08-20T04:31:50;17.00;99.90
23873;DHT22;42884;50.718;4.630;2022-08-20T04:34:16;17.20;99.90
23873;DHT22;42884;50.718;4.630;2022-08-20T04:36:46;17.00;99.90
23873;DHT22;42884;50.718;4.630;2022-08-20T04:39:13;17.10;99.90
23873;DHT22;42884;50.718;4.630;2022-08-20T04:41:38;17.10;99.90
23873;DHT22;42884;50.718;4.630;2022-08-20T04:44:04;17.20;99.90
23873;DHT22;42884;50.718;4.630;2022-08-20T04:46:30;17.20;99.90
23873;DHT22;42884;50.718;4.630;2022-08-20T04:48:56;17.20;99.90
23873;DHT22;42884;50.718;4.630;2022-08-20T04:51:22;17.20;99.90
23873;DHT22;42884;50.718;4.630;2022-08-20T04:53:47;17.20;99.90
23873;DHT22;42884;50.718;4.630;2022-08-20T04:56:13;17.20;99.90
23873;DHT22;42884;50.718;4.630;2022-08-20T04:58:39;17.20;99.90
23873;DHT22;42884;50.718;4.630;2022-08-20T05:01:09;17.20;99.90
23873;DHT22;42884;50.718;4.630;2022-08-20T05:03:35;17.20;99.90
23873;DHT22;42884;50.718;4.630;2022-08-20T05:06:02;17.10;99.90
23873;DHT22;42884;50.718;4.630;2022-08-20T05:08:27;17.10;99.90
23873;DHT22;42884;50.718;4.630;2022-08-20T05:10:54;17.00;99.90
23873;DHT22;42884;50.718;4.630;2022-08-20T05:13:20;17.00;99.90
23873;DHT22;42884;50.718;4.630;2022-08-20T05:15:45;17.10;99.90
23873;DHT22;42884;50.718;4.630;2022-08-20T05:18:14;17.00;99.90
23873;DHT22;42884;50.718;4.630;2022-08-20T05:20:40;17.00;99.90
23873;DHT22;42884;50.718;4.630;2022-08-20T05:23:07;16.90;99.90
23873;DHT22;42884;50.718;4.630;2022-08-20T05:25:34;17.00;99.90
23873;DHT22;42884;50.718;4.630;2022-08-20T05:28:01;17.00;99.90
23873;DHT22;42884;50.718;4.630;2022-08-20T05:30:28;17.10;99.90
23873;DHT22;42884;50.718;4.630;2022-08-20T05:33:00;17.10;99.90
23873;DHT22;42884;50.718;4.630;2022-08-20T05:35:27;17.10;99.90
23873;DHT22;42884;50.718;4.630;2022-08-20T05:37:53;17.10;99.90
23873;DHT22;42884;50.718;4.630;2022-08-20T05:40:19;17.00;99.90
23873;DHT22;42884;50.718;4.630;2022-08-20T05:42:47;17.10;99.90
23873;DHT22;42884;50.718;4.630;2022-08-20T05:45:12;17.10;99.90
23873;DHT22;42884;50.718;4.630;2022-08-20T05:47:38;17.10;99.90
23873;DHT22;42884;50.718;4.630;2022-08-20T05:50:05;17.20;99.90
23873;DHT22;42884;50.718;4.630;2022-08-20T05:52:31;17.20;99.90
23873;DHT22;42884;50.718;4.630;2022-08-20T05:54:56;17.30;99.90
23873;DHT22;42884;50.718;4.630;2022-08-20T05:57:22;17.30;99.90
23873;DHT22;42884;50.718;4.630;2022-08-20T05:59:47;17.40;99.90
23873;DHT22;42884;50.718;4.630;2022-08-20T06:02:13;17.30;99.90
23873;DHT22;42884;50.718;4.630;2022-08-20T06:04:57;17.30;99.90
23873;DHT22;42884;50.718;4.630;2022-08-20T06:07:23;17.40;99.90
23873;DHT22;42884;50.718;4.630;2022-08-20T06:09:49;17.50;99.90
23873;DHT22;42884;50.718;4.630;2022-08-20T06:12:14;17.50;99.90
23873;DHT22;42884;50.718;4.630;2022-08-20T06:14:41;17.60;99.90
23873;DHT22;42884;50.718;4.630;2022-08-20T06:17:08;17.70;99.90
23873;DHT22;42884;50.718;4.630;2022-08-20T06:19:34;17.60;99.90
23873;DHT22;42884;50.718;4.630;2022-08-20T06:22:00;17.80;99.90
23873;DHT22;42884;50.718;4.630;2022-08-20T06:24:26;17.80;99.90
23873;DHT22;42884;50.718;4.630;2022-08-20T06:26:55;17.80;99.90
23873;DHT22;42884;50.718;4.630;2022-08-20T06:29:21;17.90;99.90
23873;DHT22;42884;50.718;4.630;2022-08-20T06:31:46;17.80;99.90
23873;DHT22;42884;50.718;4.630;2022-08-20T06:34:12;17.80;99.90
23873;DHT22;42884;50.718;4.630;2022-08-20T06:36:37;17.90;99.90
23873;DHT22;42884;50.718;4.630;2022-08-20T06:39:03;17.80;99.90
23873;DHT22;42884;50.718;4.630;2022-08-20T06:41:29;17.70;99.90
23873;DHT22;42884;50.718;4.630;2022-08-20T06:43:54;17.70;99.90
23873;DHT22;42884;50.718;4.630;2022-08-20T06:46:20;17.80;99.90
23873;DHT22;42884;50.718;4.630;2022-08-20T06:48:48;17.80;99.90
23873;DHT22;42884;50.718;4.630;2022-08-20T06:51:13;17.80;99.90
23873;DHT22;42884;50.718;4.630;2022-08-20T06:53:39;18.00;99.90
23873;DHT22;42884;50.718;4.630;2022-08-20T06:56:04;18.10;99.90
23873;DHT22;42884;50.718;4.630;2022-08-20T06:58:30;18.10;99.90
23873;DHT22;42884;50.718;4.630;2022-08-20T07:00:57;18.20;99.90
23873;DHT22;42884;50.718;4.630;2022-08-20T07:03:24;18.40;99.90
23873;DHT22;42884;50.718;4.630;2022-08-20T07:05:50;18.50;99.90
23873;DHT22;42884;50.718;4.630;2022-08-20T07:08:15;18.70;99.90
23873;DHT22;42884;50.718;4.630;2022-08-20T07:10:43;18.90;99.90
23873;DHT22;42884;50.718;4.630;2022-08-20T07:13:09;19.00;99.90
23873;DHT22;42884;50.718;4.630;2022-08-20T07:15:36;19.00;99.90
23873;DHT22;42884;50.718;4.630;2022-08-20T07:18:02;19.00;99.90
23873;DHT22;42884;50.718;4.630;2022-08-20T07:20:29;19.20;99.90
23873;DHT22;42884;50.718;4.630;2022-08-20T07:22:59;19.10;99.90
23873;DHT22;42884;50.718;4.630;2022-08-20T07:25:25;19.20;99.90
23873;DHT22;42884;50.718;4.630;2022-08-20T07:27:50;19.30;99.90
23873;DHT22;42884;50.718;4.630;2022-08-20T07:30:18;19.40;99.90
23873;DHT22;42884;50.718;4.630;2022-08-20T07:33:03;19.50;99.90
23873;DHT22;42884;50.718;4.630;2022-08-20T07:35:28;19.70;99.90
23873;DHT22;42884;50.718;4.630;2022-08-20T07:37:54;19.80;99.90
23873;DHT22;42884;50.718;4.630;2022-08-20T07:40:21;19.90;99.90
23873;DHT22;42884;50.718;4.630;2022-08-20T07:42:47;19.90;99.90
23873;DHT22;42884;50.718;4.630;2022-08-20T07:45:14;20.10;99.90
23873;DHT22;42884;50.718;4.630;2022-08-20T07:47:42;20.10;99.90
23873;DHT22;42884;50.718;4.630;2022-08-20T07:50:09;20.30;99.90
23873;DHT22;42884;50.718;4.630;2022-08-20T07:52:35;20.40;99.90
23873;DHT22;42884;50.718;4.630;2022-08-20T07:55:03;20.60;99.90
23873;DHT22;42884;50.718;4.630;2022-08-20T07:57:30;20.80;99.90
23873;DHT22;42884;50.718;4.630;2022-08-20T07:59:55;20.80;99.90
23873;DHT22;42884;50.718;4.630;2022-08-20T08:02:23;21.10;99.90
23873;DHT22;42884;50.718;4.630;2022-08-20T08:04:49;21.20;99.90
23873;DHT22;42884;50.718;4.630;2022-08-20T08:07:15;21.00;99.90
23873;DHT22;42884;50.718;4.630;2022-08-20T08:09:41;21.20;99.90
23873;DHT22;42884;50.718;4.630;2022-08-20T08:12:08;21.30;99.90
23873;DHT22;42884;50.718;4.630;2022-08-20T08:14:36;21.30;99.90
23873;DHT22;42884;50.718;4.630;2022-08-20T08:17:03;21.40;99.90
23873;DHT22;42884;50.718;4.630;2022-08-20T08:19:29;21.60;99.90
23873;DHT22;42884;50.718;4.630;2022-08-20T08:22:06;21.70;99.90
23873;DHT22;42884;50.718;4.630;2022-08-20T08:24:36;21.90;99.90
23873;DHT22;42884;50.718;4.630;2022-08-20T08:27:02;22.20;99.90
23873;DHT22;42884;50.718;4.630;2022-08-20T08:29:28;22.40;99.90
23873;DHT22;42884;50.718;4.630;2022-08-20T08:31:54;22.60;99.90
23873;DHT22;42884;50.718;4.630;2022-08-20T08:34:20;22.70;99.90
23873;DHT22;42884;50.718;4.630;2022-08-20T08:36:45;22.90;99.90
23873;DHT22;42884;50.718;4.630;2022-08-20T08:39:11;23.00;99.90
23873;DHT22;42884;50.718;4.630;2022-08-20T08:41:41;23.50;99.90
23873;DHT22;42884;50.718;4.630;2022-08-20T08:44:14;23.50;99.90
23873;DHT22;42884;50.718;4.630;2022-08-20T08:46:46;23.70;99.90
23873;DHT22;42884;50.718;4.630;2022-08-20T08:49:15;23.80;99.90
23873;DHT22;42884;50.718;4.630;2022-08-20T08:52:25;24.10;99.90
23873;DHT22;42884;50.718;4.630;2022-08-20T08:54:32;24.50;99.90
23873;DHT22;42884;50.718;4.630;2022-08-20T08:56:58;25.00;99.90
23873;DHT22;42884;50.718;4.630;2022-08-20T08:59:24;25.40;99.90
23873;DHT22;42884;50.718;4.630;2022-08-20T09:01:52;25.80;99.90
23873;DHT22;42884;50.718;4.630;2022-08-20T09:04:18;25.90;99.90
23873;DHT22;42884;50.718;4.630;2022-08-20T09:06:46;26.20;99.90
23873;DHT22;42884;50.718;4.630;2022-08-20T09:09:21;26.50;99.90
23873;DHT22;42884;50.718;4.630;2022-08-20T09:11:50;26.30;99.90
23873;DHT22;42884;50.718;4.630;2022-08-20T09:14:17;26.60;99.90
23873;DHT22;42884;50.718;4.630;2022-08-20T09:16:43;27.10;99.90
23873;DHT22;42884;50.718;4.630;2022-08-20T09:19:09;27.20;99.90
23873;DHT22;42884;50.718;4.630;2022-08-20T09:21:34;27.10;99.90
23873;DHT22;42884;50.718;4.630;2022-08-20T09:24:00;27.10;99.90
23873;DHT22;42884;50.718;4.630;2022-08-20T09:26:26;27.30;99.90
23873;DHT22;42884;50.718;4.630;2022-08-20T09:28:51;27.90;99.90
23873;DHT22;42884;50.718;4.630;2022-08-20T09:31:17;28.30;99.90
23873;DHT22;42884;50.718;4.630;2022-08-20T09:33:42;28.40;99.90
23873;DHT22;42884;50.718;4.630;2022-08-20T09:36:08;28.90;99.90
23873;DHT22;42884;50.718;4.630;2022-08-20T09:38:34;29.00;99.60
23873;DHT22;42884;50.718;4.630;2022-08-20T09:40:59;29.00;98.00
23873;DHT22;42884;50.718;4.630;2022-08-20T09:43:25;29.20;97.50
23873;DHT22;42884;50.718;4.630;2022-08-20T09:45:50;28.90;97.60
23873;DHT22;42884;50.718;4.630;2022-08-20T09:48:16;29.10;97.40
23873;DHT22;42884;50.718;4.630;2022-08-20T09:50:46;29.70;96.90
23873;DHT22;42884;50.718;4.630;2022-08-20T09:53:12;29.70;95.90
23873;DHT22;42884;50.718;4.630;2022-08-20T09:55:39;29.10;96.40
23873;DHT22;42884;50.718;4.630;2022-08-20T09:58:08;28.80;96.70
23873;DHT22;42884;50.718;4.630;2022-08-20T10:00:36;28.10;96.40
23873;DHT22;42884;50.718;4.630;2022-08-20T10:03:02;27.90;97.80
23873;DHT22;42884;50.718;4.630;2022-08-20T10:05:28;28.20;97.20
23873;DHT22;42884;50.718;4.630;2022-08-20T10:07:54;28.50;96.20
23873;DHT22;42884;50.718;4.630;2022-08-20T10:10:19;28.00;94.80
23873;DHT22;42884;50.718;4.630;2022-08-20T10:12:45;28.10;95.90
23873;DHT22;42884;50.718;4.630;2022-08-20T10:15:11;28.30;96.80
23873;DHT22;42884;50.718;4.630;2022-08-20T10:17:40;28.90;97.30
23873;DHT22;42884;50.718;4.630;2022-08-20T10:20:07;29.40;94.10
23873;DHT22;42884;50.718;4.630;2022-08-20T10:22:33;29.20;94.70
23873;DHT22;42884;50.718;4.630;2022-08-20T10:24:59;29.20;92.10
23873;DHT22;42884;50.718;4.630;2022-08-20T10:27:24;29.10;92.80
23873;DHT22;42884;50.718;4.630;2022-08-20T10:29:50;29.00;93.10
23873;DHT22;42884;50.718;4.630;2022-08-20T10:32:16;29.60;94.20
23873;DHT22;42884;50.718;4.630;2022-08-20T10:34:42;30.00;92.10
23873;DHT22;42884;50.718;4.630;2022-08-20T10:37:09;29.70;91.70
23873;DHT22;42884;50.718;4.630;2022-08-20T10:39:34;29.40;92.10
23873;DHT22;42884;50.718;4.630;2022-08-20T10:42:00;28.90;92.80
23873;DHT22;42884;50.718;4.630;2022-08-20T10:44:25;29.30;92.30
23873;DHT22;42884;50.718;4.630;2022-08-20T10:46:51;29.50;93.20
23873;DHT22;42884;50.718;4.630;2022-08-20T10:49:17;29.00;93.20
23873;DHT22;42884;50.718;4.630;2022-08-20T10:51:42;28.90;93.30
23873;DHT22;42884;50.718;4.630;2022-08-20T10:54:08;28.40;93.90
23873;DHT22;42884;50.718;4.630;2022-08-20T10:56:33;28.00;94.20
23873;DHT22;42884;50.718;4.630;2022-08-20T10:58:59;28.10;94.70
23873;DHT22;42884;50.718;4.630;2022-08-20T11:01:24;28.40;94.50
23873;DHT22;42884;50.718;4.630;2022-08-20T11:03:50;28.20;93.60
23873;DHT22;42884;50.718;4.630;2022-08-20T11:06:15;28.50;93.30
23873;DHT22;42884;50.718;4.630;2022-08-20T11:08:41;28.80;91.90
23873;DHT22;42884;50.718;4.630;2022-08-20T11:11:06;28.50;92.30
23873;DHT22;42884;50.718;4.630;2022-08-20T11:13:32;29.20;93.70
23873;DHT22;42884;50.718;4.630;2022-08-20T11:15:58;29.70;91.60
23873;DHT22;42884;50.718;4.630;2022-08-20T11:18:24;30.30;92.30
23873;DHT22;42884;50.718;4.630;2022-08-20T11:20:50;30.80;91.30
23873;DHT22;42884;50.718;4.630;2022-08-20T11:23:16;30.70;89.20
23873;DHT22;42884;50.718;4.630;2022-08-20T11:25:42;30.10;90.80
23873;DHT22;42884;50.718;4.630;2022-08-20T11:28:07;29.50;89.60
23873;DHT22;42884;50.718;4.630;2022-08-20T11:30:34;29.50;90.50
23873;DHT22;42884;50.718;4.630;2022-08-20T11:33:00;30.00;90.60
23873;DHT22;42884;50.718;4.630;2022-08-20T11:35:29;30.60;91.20
23873;DHT22;42884;50.718;4.630;2022-08-20T11:37:55;31.30;90.30
23873;DHT22;42884;50.718;4.630;2022-08-20T11:40:22;31.80;86.00
23873;DHT22;42884;50.718;4.630;2022-08-20T11:42:48;31.80;87.60
23873;DHT22;42884;50.718;4.630;2022-08-20T11:45:14;31.80;88.20
23873;DHT22;42884;50.718;4.630;2022-08-20T11:47:40;31.90;85.10
23873;DHT22;42884;50.718;4.630;2022-08-20T11:50:09;31.80;88.30
23873;DHT22;42884;50.718;4.630;2022-08-20T11:52:35;31.40;86.00
23873;DHT22;42884;50.718;4.630;2022-08-20T11:55:01;31.40;86.30
23873;DHT22;42884;50.718;4.630;2022-08-20T11:57:28;31.30;81.70
23873;DHT22;42884;50.718;4.630;2022-08-20T11:59:55;30.60;83.50
23873;DHT22;42884;50.718;4.630;2022-08-20T12:02:21;30.20;84.20
23873;DHT22;42884;50.718;4.630;2022-08-20T12:04:47;30.10;85.80
23873;DHT22;42884;50.718;4.630;2022-08-20T12:07:15;30.30;84.10
23873;DHT22;42884;50.718;4.630;2022-08-20T12:09:40;30.20;82.60
23873;DHT22;42884;50.718;4.630;2022-08-20T12:12:06;30.30;85.80
23873;DHT22;42884;50.718;4.630;2022-08-20T12:14:32;30.70;86.70
23873;DHT22;42884;50.718;4.630;2022-08-20T12:17:06;31.10;81.20
23873;DHT22;42884;50.718;4.630;2022-08-20T12:19:31;30.60;82.50
23873;DHT22;42884;50.718;4.630;2022-08-20T12:21:57;30.10;83.10
23873;DHT22;42884;50.718;4.630;2022-08-20T12:24:22;30.10;84.30
23873;DHT22;42884;50.718;4.630;2022-08-20T12:26:48;30.50;82.70
23873;DHT22;42884;50.718;4.630;2022-08-20T12:29:13;31.10;84.50
23873;DHT22;42884;50.718;4.630;2022-08-20T12:31:39;31.40;80.90
23873;DHT22;42884;50.718;4.630;2022-08-20T12:34:04;31.80;80.40
23873;DHT22;42884;50.718;4.630;2022-08-20T12:36:30;32.00;82.00
23873;DHT22;42884;50.718;4.630;2022-08-20T12:38:55;31.80;84.00
23873;DHT22;42884;50.718;4.630;2022-08-20T12:41:21;32.10;82.00
23873;DHT22;42884;50.718;4.630;2022-08-20T12:43:46;32.10;79.30
23873;DHT22;42884;50.718;4.630;2022-08-20T12:46:12;32.00;76.90
23873;DHT22;42884;50.718;4.630;2022-08-20T12:48:37;31.60;78.20
23873;DHT22;42884;50.718;4.630;2022-08-20T12:51:03;31.20;78.60
23873;DHT22;42884;50.718;4.630;2022-08-20T12:53:29;31.00;81.10
23873;DHT22;42884;50.718;4.630;2022-08-20T12:55:54;31.40;82.40
23873;DHT22;42884;50.718;4.630;2022-08-20T12:58:20;31.00;79.10
23873;DHT22;42884;50.718;4.630;2022-08-20T13:00:45;30.80;79.30
23873;DHT22;42884;50.718;4.630;2022-08-20T13:03:12;31.10;79.30
23873;DHT22;42884;50.718;4.630;2022-08-20T13:05:38;31.40;76.70
23873;DHT22;42884;50.718;4.630;2022-08-20T13:08:04;31.20;79.40
23873;DHT22;42884;50.718;4.630;2022-08-20T13:10:33;30.70;78.60
23873;DHT22;42884;50.718;4.630;2022-08-20T13:12:59;30.80;78.30
23873;DHT22;42884;50.718;4.630;2022-08-20T13:15:28;30.40;78.70
23873;DHT22;42884;50.718;4.630;2022-08-20T13:17:57;30.40;78.60
23873;DHT22;42884;50.718;4.630;2022-08-20T13:20:24;29.90;82.60
23873;DHT22;42884;50.718;4.630;2022-08-20T13:22:51;30.30;84.00
23873;DHT22;42884;50.718;4.630;2022-08-20T13:25:17;30.70;83.10
23873;DHT22;42884;50.718;4.630;2022-08-20T13:27:43;31.00;80.30
23873;DHT22;42884;50.718;4.630;2022-08-20T13:30:10;31.10;81.30
23873;DHT22;42884;50.718;4.630;2022-08-20T13:32:36;31.30;77.70
23873;DHT22;42884;50.718;4.630;2022-08-20T13:35:02;30.80;78.80
23873;DHT22;42884;50.718;4.630;2022-08-20T13:37:28;30.60;79.60
23873;DHT22;42884;50.718;4.630;2022-08-20T13:39:54;30.40;78.50
23873;DHT22;42884;50.718;4.630;2022-08-20T13:42:20;30.60;81.00
23873;DHT22;42884;50.718;4.630;2022-08-20T13:44:46;30.90;77.00
23873;DHT22;42884;50.718;4.630;2022-08-20T13:47:19;30.80;80.50
23873;DHT22;42884;50.718;4.630;2022-08-20T13:49:45;30.60;78.20
23873;DHT22;42884;50.718;4.630;2022-08-20T13:52:11;30.20;77.90
23873;DHT22;42884;50.718;4.630;2022-08-20T13:54:36;30.40;79.30
23873;DHT22;42884;50.718;4.630;2022-08-20T13:57:10;30.30;76.70
23873;DHT22;42884;50.718;4.630;2022-08-20T13:59:37;30.50;76.30
23873;DHT22;42884;50.718;4.630;2022-08-20T14:02:03;30.20;75.70
23873;DHT22;42884;50.718;4.630;2022-08-20T14:04:29;30.50;77.20
23873;DHT22;42884;50.718;4.630;2022-08-20T14:06:54;31.00;78.70
23873;DHT22;42884;50.718;4.630;2022-08-20T14:09:20;31.00;77.00
23873;DHT22;42884;50.718;4.630;2022-08-20T14:11:45;30.80;76.70
23873;DHT22;42884;50.718;4.630;2022-08-20T14:14:11;30.60;74.50
23873;DHT22;42884;50.718;4.630;2022-08-20T14:16:37;30.60;76.50
23873;DHT22;42884;50.718;4.630;2022-08-20T14:19:04;31.00;76.80
23873;DHT22;42884;50.718;4.630;2022-08-20T14:21:29;31.60;78.20
23873;DHT22;42884;50.718;4.630;2022-08-20T14:23:55;31.40;75.10
23873;DHT22;42884;50.718;4.630;2022-08-20T14:26:22;31.00;76.10
23873;DHT22;42884;50.718;4.630;2022-08-20T14:28:48;30.90;75.20
23873;DHT22;42884;50.718;4.630;2022-08-20T14:31:13;30.90;76.50
23873;DHT22;42884;50.718;4.630;2022-08-20T14:33:39;31.50;78.40
23873;DHT22;42884;50.718;4.630;2022-08-20T14:36:04;32.00;75.80
23873;DHT22;42884;50.718;4.630;2022-08-20T14:38:30;32.00;72.90
23873;DHT22;42884;50.718;4.630;2022-08-20T14:40:55;31.60;73.60
23873;DHT22;42884;50.718;4.630;2022-08-20T14:43:21;31.70;74.90
23873;DHT22;42884;50.718;4.630;2022-08-20T14:45:47;31.20;73.10
23873;DHT22;42884;50.718;4.630;2022-08-20T14:48:13;31.50;77.10
23873;DHT22;42884;50.718;4.630;2022-08-20T14:50:39;31.30;75.10
23873;DHT22;42884;50.718;4.630;2022-08-20T14:53:05;30.90;74.30
23873;DHT22;42884;50.718;4.630;2022-08-20T14:55:32;30.60;74.10
23873;DHT22;42884;50.718;4.630;2022-08-20T14:57:58;30.00;79.90
23873;DHT22;42884;50.718;4.630;2022-08-20T15:00:25;30.50;75.60
23873;DHT22;42884;50.718;4.630;2022-08-20T15:02:51;30.90;75.70
23873;DHT22;42884;50.718;4.630;2022-08-20T15:05:17;30.80;75.20
23873;DHT22;42884;50.718;4.630;2022-08-20T15:07:44;30.80;76.10
23873;DHT22;42884;50.718;4.630;2022-08-20T15:10:12;30.60;72.50
23873;DHT22;42884;50.718;4.630;2022-08-20T15:12:37;30.50;74.70
23873;DHT22;42884;50.718;4.630;2022-08-20T15:15:04;30.80;73.60
23873;DHT22;42884;50.718;4.630;2022-08-20T15:17:31;30.60;73.20
23873;DHT22;42884;50.718;4.630;2022-08-20T15:19:57;30.60;74.40
23873;DHT22;42884;50.718;4.630;2022-08-20T15:22:22;30.40;75.80
23873;DHT22;42884;50.718;4.630;2022-08-20T15:24:48;30.00;75.70
23873;DHT22;42884;50.718;4.630;2022-08-20T15:27:19;30.10;75.80
23873;DHT22;42884;50.718;4.630;2022-08-20T15:29:45;30.00;74.60
23873;DHT22;42884;50.718;4.630;2022-08-20T15:32:10;30.00;74.70